Time;durP1;ratioP1;P1;durP2;ratioP2;P2;SDS_P1;SDS_P2;PMS_P1;PMS_P2;Temp;Humidity;BMP_temperature;BMP_pressure;BME280_temperature;BME280_humidity;BME280_pressure;Samples;Min_cycle;Max_cycle;Signal;HPM_P1;HPM_P2
2023/06/13 00:02:20;;;;;;;4.68;1.60;;;;;;;;;;4956342;28;20097;-81
2023/06/13 00:04:48;;;;;;;2.50;1.40;;;;;;;;;;4939429;28;20055;-81
2023/06/13 00:07:15;;;;;;;2.97;1.30;;;;;;;;;;4955986;28;20474;-81
2023/06/13 00:09:43;;;;;;;3.65;1.50;;;;;;;;;;4955241;28;20150;-81
2023/06/13 00:12:19;;;;;;;3.72;1.50;;;;;;;;;;4952225;28;20050;-80
2023/06/13 00:14:52;;;;;;;4.43;1.50;;;;;;;;;;4956730;28;20185;-81
2023/06/13 00:17:22;;;;;;;2.30;1.30;;;;;;;;;;4955348;28;20039;-80
2023/06/13 00:20:14;;;;;;;3.05;1.30;;;;;;;;;;4956531;28;20051;-81
2023/06/13 00:22:41;;;;;;;2.65;1.33;;;;;;;;;;4956004;28;20518;-79
2023/06/13 00:25:13;;;;;;;4.05;1.58;;;;;;;;;;4955400;28;20074;-80
2023/06/13 00:27:41;;;;;;;4.32;1.48;;;;;;;;;;4953434;28;20035;-79
2023/06/13 00:30:10;;;;;;;3.60;1.88;;;;;;;;;;4952100;28;20519;-80
2023/06/13 00:32:37;;;;;;;3.28;1.40;;;;;;;;;;4955043;28;20114;-79
2023/06/13 00:35:08;;;;;;;3.38;1.50;;;;;;;;;;4951998;28;20054;-79
2023/06/13 00:37:38;;;;;;;3.15;1.48;;;;;;;;;;4947605;28;20847;-79
2023/06/13 00:40:13;;;;;;;4.32;1.40;;;;;;;;;;4931096;28;20248;-79
2023/06/13 00:42:41;;;;;;;5.70;1.52;;;;;;;;;;4957946;28;20046;-79
2023/06/13 00:45:20;;;;;;;3.40;1.30;;;;;;;;;;4952725;28;20489;-79
2023/06/13 00:47:55;;;;;;;3.63;1.40;;;;;;;;;;4932664;28;20155;-79
2023/06/13 00:50:30;;;;;;;2.72;1.27;;;;;;;;;;4953002;28;20086;-79
2023/06/13 00:53:16;;;;;;;2.65;1.30;;;;;;;;;;4957078;28;20142;-79
2023/06/13 00:55:50;;;;;;;3.63;1.60;;;;;;;;;;4931275;28;20547;-79
2023/06/13 00:58:24;;;;;;;4.22;1.67;;;;;;;;;;4955363;28;20054;-80
2023/06/13 01:00:53;;;;;;;2.72;1.50;;;;;;;;;;4934879;28;20035;-79
2023/06/13 01:03:25;;;;;;;3.70;1.85;;;;;;;;;;4930970;28;20387;-79
2023/06/13 01:05:53;;;;;;;3.92;1.52;;;;;;;;;;4950867;28;20105;-80
2023/06/13 01:08:45;;;;;;;2.47;1.33;;;;;;;;;;4954328;28;20417;-79
2023/06/13 01:11:40;;;;;;;4.28;1.77;;;;;;;;;;4943661;28;20082;-79
2023/06/13 01:14:16;;;;;;;5.00;1.60;;;;;;;;;;4959230;28;20125;-79
2023/06/13 01:16:47;;;;;;;3.00;1.50;;;;;;;;;;4954381;28;20537;-79
2023/06/13 01:19:31;;;;;;;3.45;1.48;;;;;;;;;;4945045;28;20059;-79
2023/06/13 01:22:01;;;;;;;5.53;1.67;;;;;;;;;;4955183;28;20047;-79
2023/06/13 01:25:00;;;;;;;4.85;1.60;;;;;;;;;;4954596;28;20098;-79
2023/06/13 01:27:29;;;;;;;3.13;1.50;;;;;;;;;;4932865;28;20505;-79
2023/06/13 01:29:59;;;;;;;3.00;1.48;;;;;;;;;;4954781;28;20054;-79
2023/06/13 01:32:52;;;;;;;5.38;1.48;;;;;;;;;;4955476;28;20505;-79
2023/06/13 01:35:44;;;;;;;4.03;1.55;;;;;;;;;;4936564;28;20040;-79
2023/06/13 01:38:12;;;;;;;3.90;1.45;;;;;;;;;;4946645;28;20382;-79
2023/06/13 01:40:43;;;;;;;4.20;1.45;;;;;;;;;;4935507;28;20050;-79
2023/06/13 01:43:11;;;;;;;3.72;1.50;;;;;;;;;;4959259;28;20051;-79
2023/06/13 01:46:13;;;;;;;2.95;1.40;;;;;;;;;;4950253;28;20129;-79
2023/06/13 01:48:55;;;;;;;2.88;1.30;;;;;;;;;;4952328;28;20124;-80
2023/06/13 01:52:00;;;;;;;3.00;1.52;;;;;;;;;;4929802;28;20138;-79
2023/06/13 01:54:32;;;;;;;3.17;1.65;;;;;;;;;;4882745;29;20051;-80
2023/06/13 01:57:03;;;;;;;4.25;1.80;;;;;;;;;;4897395;29;20107;-79
2023/06/13 01:59:32;;;;;;;4.53;1.90;;;;;;;;;;4913153;29;20564;-79
2023/06/13 02:02:01;;;;;;;5.45;1.73;;;;;;;;;;4912694;29;20098;-79
2023/06/13 02:04:38;;;;;;;6.82;1.60;;;;;;;;;;4911006;29;20056;-79
2023/06/13 02:07:06;;;;;;;3.80;1.77;;;;;;;;;;4913942;29;20210;-79
2023/06/13 02:09:33;;;;;;;3.83;1.60;;;;;;;;;;4913585;29;20060;-79
2023/06/13 02:12:02;;;;;;;2.97;1.67;;;;;;;;;;4910196;29;20044;-79
2023/06/13 02:14:32;;;;;;;3.42;1.75;;;;;;;;;;4908835;29;21383;-79
2023/06/13 02:16:59;;;;;;;3.28;1.75;;;;;;;;;;4899104;29;20071;-79
2023/06/13 02:19:28;;;;;;;5.43;1.75;;;;;;;;;;4914116;29;20079;-79
2023/06/13 02:21:55;;;;;;;5.65;1.75;;;;;;;;;;4910879;29;20503;-79
2023/06/13 02:24:23;;;;;;;4.07;1.95;;;;;;;;;;4897250;29;20051;-79
2023/06/13 02:26:51;;;;;;;4.63;1.60;;;;;;;;;;4882383;29;20048;-79
2023/06/13 02:29:24;;;;;;;5.20;1.63;;;;;;;;;;4947807;28;20493;-79
2023/06/13 02:32:16;;;;;;;6.85;3.15;;;;;;;;;;4951767;28;20035;-79
2023/06/13 02:34:53;;;;;;;4.38;1.63;;;;;;;;;;4945168;28;20058;-79
2023/06/13 02:37:21;;;;;;;3.58;1.90;;;;;;;;;;4955661;28;20039;-79
2023/06/13 02:39:49;;;;;;;9.57;2.00;;;;;;;;;;4935564;28;20055;-79
2023/06/13 02:42:17;;;;;;;4.13;1.98;;;;;;;;;;4929382;28;20090;-80
2023/06/13 02:44:45;;;;;;;8.70;2.85;;;;;;;;;;4929842;28;20090;-79
2023/06/13 02:47:13;;;;;;;4.60;1.80;;;;;;;;;;4951348;28;20042;-79
2023/06/13 02:49:41;;;;;;;3.70;1.80;;;;;;;;;;4953370;28;20106;-79
2023/06/13 02:52:13;;;;;;;4.05;2.13;;;;;;;;;;4954828;28;20089;-79
2023/06/13 02:54:45;;;;;;;4.00;1.65;;;;;;;;;;4927051;28;20043;-79
2023/06/13 02:57:13;;;;;;;7.28;1.73;;;;;;;;;;4950417;28;20137;-79
2023/06/13 02:59:42;;;;;;;6.78;2.13;;;;;;;;;;4949581;28;20073;-79
2023/06/13 03:02:09;;;;;;;3.63;1.70;;;;;;;;;;4930442;28;20469;-79
2023/06/13 03:04:38;;;;;;;3.28;1.90;;;;;;;;;;4945348;28;20063;-79
2023/06/13 03:07:16;;;;;;;3.80;2.03;;;;;;;;;;4936450;28;20059;-79
2023/06/13 03:09:49;;;;;;;6.65;3.20;;;;;;;;;;4927477;28;20101;-79
2023/06/13 03:12:17;;;;;;;3.78;2.00;;;;;;;;;;4961948;28;20050;-79
2023/06/13 03:14:49;;;;;;;5.82;1.83;;;;;;;;;;4927734;28;20487;-79
2023/06/13 03:17:22;;;;;;;5.43;2.13;;;;;;;;;;4929576;28;20090;-79
2023/06/13 03:19:50;;;;;;;3.55;1.90;;;;;;;;;;4929262;28;20121;-79
2023/06/13 03:22:32;;;;;;;3.53;1.70;;;;;;;;;;4949911;28;20043;-79
2023/06/13 03:25:34;;;;;;;3.55;1.77;;;;;;;;;;4956889;28;20118;-79
2023/06/13 03:31:00;;;;;;;4.45;1.80;;;;;;;;;;4958791;28;20409;-79
2023/06/13 03:33:31;;;;;;;5.40;2.00;;;;;;;;;;4954258;28;20501;-79
2023/06/13 03:36:00;;;;;;;4.97;1.83;;;;;;;;;;4958356;28;20129;-79
2023/06/13 03:38:28;;;;;;;4.88;1.95;;;;;;;;;;4956419;28;20038;-79
2023/06/13 03:41:01;;;;;;;6.00;2.25;;;;;;;;;;4958967;28;20134;-79
2023/06/13 03:43:53;;;;;;;5.22;2.00;;;;;;;;;;4934033;28;20064;-79
2023/06/13 03:46:21;;;;;;;5.75;1.95;;;;;;;;;;4961788;28;20050;-79
2023/06/13 03:48:53;;;;;;;5.50;2.20;;;;;;;;;;4964794;28;20039;-79
2023/06/13 03:51:27;;;;;;;4.88;2.35;;;;;;;;;;4964941;28;20143;-79
2023/06/13 03:53:55;;;;;;;4.75;2.22;;;;;;;;;;4959179;28;20417;-79
2023/06/13 03:56:23;;;;;;;5.28;2.45;;;;;;;;;;4957161;28;20066;-79
2023/06/13 03:58:51;;;;;;;4.15;2.30;;;;;;;;;;4956583;28;20047;-79
2023/06/13 04:01:19;;;;;;;6.10;1.90;;;;;;;;;;4938479;28;20618;-79
2023/06/13 04:06:47;;;;;;;5.00;1.88;;;;;;;;;;4957482;28;20042;-79
2023/06/13 04:09:17;;;;;;;6.68;2.33;;;;;;;;;;4952233;28;20520;-79
2023/06/13 04:11:45;;;;;;;3.22;1.80;;;;;;;;;;4956473;28;20145;-79
2023/06/13 04:14:37;;;;;;;5.93;2.20;;;;;;;;;;4955172;28;20043;-79
2023/06/13 04:17:31;;;;;;;7.85;2.50;;;;;;;;;;4956977;28;20071;-79
2023/06/13 04:19:59;;;;;;;4.30;2.03;;;;;;;;;;4951921;28;20055;-77
2023/06/13 04:22:27;;;;;;;4.72;2.03;;;;;;;;;;4930266;28;20133;-79
2023/06/13 04:24:55;;;;;;;5.18;1.90;;;;;;;;;;4956014;28;20574;-79
2023/06/13 04:27:27;;;;;;;4.65;2.13;;;;;;;;;;4938875;28;20122;-79
2023/06/13 04:29:56;;;;;;;6.45;2.38;;;;;;;;;;4951348;28;20058;-79
2023/06/13 04:32:26;;;;;;;4.13;2.20;;;;;;;;;;4948502;28;20523;-79
2023/06/13 04:35:17;;;;;;;4.45;2.33;;;;;;;;;;4954180;28;20031;-79
2023/06/13 04:37:46;;;;;;;6.18;2.00;;;;;;;;;;4956151;28;20122;-79
2023/06/13 04:40:13;;;;;;;4.00;2.20;;;;;;;;;;4955110;28;20046;-79
2023/06/13 04:42:47;;;;;;;3.72;1.80;;;;;;;;;;4956120;28;20118;-78
2023/06/13 04:45:20;;;;;;;3.63;1.90;;;;;;;;;;4954881;28;20089;-78
2023/06/13 04:48:14;;;;;;;5.57;1.90;;;;;;;;;;4935940;28;20130;-78
2023/06/13 04:50:41;;;;;;;5.97;2.42;;;;;;;;;;4956349;28;20088;-78
2023/06/13 04:53:11;;;;;;;5.13;2.22;;;;;;;;;;4957521;28;20970;-78
2023/06/13 04:55:40;;;;;;;5.13;2.13;;;;;;;;;;4952516;28;20058;-78
2023/06/13 04:58:08;;;;;;;8.73;2.53;;;;;;;;;;4950062;28;20504;-79
2023/06/13 05:00:35;;;;;;;6.38;2.22;;;;;;;;;;4930345;28;20055;-79
2023/06/13 05:03:08;;;;;;;6.40;1.95;;;;;;;;;;4952505;28;20130;-80
2023/06/13 05:05:35;;;;;;;3.92;2.03;;;;;;;;;;4955942;28;20520;-79
2023/06/13 05:08:03;;;;;;;4.57;1.90;;;;;;;;;;4956863;28;20042;-80
2023/06/13 05:10:32;;;;;;;6.55;2.45;;;;;;;;;;4951893;28;20054;-80
2023/06/13 05:13:01;;;;;;;8.73;1.95;;;;;;;;;;4953554;28;21066;-79
2023/06/13 05:15:27;;;;;;;6.40;2.13;;;;;;;;;;4953510;28;20039;-79
2023/06/13 05:17:56;;;;;;;4.85;2.30;;;;;;;;;;4956858;28;20052;-80
2023/06/13 05:20:27;;;;;;;5.28;2.40;;;;;;;;;;4953248;28;20934;-80
2023/06/13 05:22:56;;;;;;;6.88;2.42;;;;;;;;;;4951670;28;20086;-80
2023/06/13 05:25:24;;;;;;;5.57;2.50;;;;;;;;;;4954881;28;20052;-80
2023/06/13 05:27:56;;;;;;;3.65;1.73;;;;;;;;;;4945638;28;20378;-80
2023/06/13 05:30:24;;;;;;;6.50;2.85;;;;;;;;;;4946126;28;20053;-80
2023/06/13 05:32:52;;;;;;;8.95;2.30;;;;;;;;;;4955602;28;20052;-82
2023/06/13 05:35:20;;;;;;;6.30;2.10;;;;;;;;;;4952516;28;20628;-79
2023/06/13 05:37:50;;;;;;;6.25;2.50;;;;;;;;;;4954616;28;20052;-79
2023/06/13 05:40:24;;;;;;;5.32;2.25;;;;;;;;;;4952425;28;20046;-81
2023/06/13 05:42:54;;;;;;;4.65;2.10;;;;;;;;;;4933874;28;20047;-81
2023/06/13 05:45:28;;;;;;;5.40;2.50;;;;;;;;;;4950513;28;20039;-81
2023/06/13 05:47:58;;;;;;;6.90;1.80;;;;;;;;;;4915042;28;20131;-80
2023/06/13 05:50:28;;;;;;;5.47;2.33;;;;;;;;;;4955148;28;20621;-83
2023/06/13 05:53:02;;;;;;;4.50;2.30;;;;;;;;;;4953286;28;20376;-83
2023/06/13 05:55:36;;;;;;;6.32;2.97;;;;;;;;;;4951266;28;20611;-81
2023/06/13 05:58:16;;;;;;;5.03;2.20;;;;;;;;;;4941357;28;20039;-80
2023/06/13 06:00:46;;;;;;;4.85;1.90;;;;;;;;;;4949658;28;20043;-80
2023/06/13 06:03:16;;;;;;;6.38;2.10;;;;;;;;;;4952727;28;20418;-80
2023/06/13 06:06:07;;;;;;;5.30;1.90;;;;;;;;;;4953340;28;20061;-80
2023/06/13 06:08:35;;;;;;;5.10;1.80;;;;;;;;;;4955175;28;20504;-80
2023/06/13 06:11:27;;;;;;;6.80;2.10;;;;;;;;;;4934611;28;20125;-80
2023/06/13 06:14:00;;;;;;;4.95;1.80;;;;;;;;;;4954226;28;20412;-80
2023/06/13 06:16:27;;;;;;;3.72;1.90;;;;;;;;;;4953876;28;20042;-80
2023/06/13 06:18:55;;;;;;;6.00;2.10;;;;;;;;;;4954732;28;20047;-79
2023/06/13 06:21:23;;;;;;;4.88;1.98;;;;;;;;;;4934759;28;20489;-80
2023/06/13 06:23:51;;;;;;;4.40;2.28;;;;;;;;;;4953219;28;20050;-80
2023/06/13 06:26:20;;;;;;;6.28;1.70;;;;;;;;;;4954786;28;20050;-80
2023/06/13 06:29:13;;;;;;;3.50;2.00;;;;;;;;;;4947592;28;20035;-80
2023/06/13 06:31:41;;;;;;;11.20;1.83;;;;;;;;;;4948229;28;20503;-79
2023/06/13 06:34:09;;;;;;;5.90;1.80;;;;;;;;;;4944481;28;20039;-80
2023/06/13 06:36:37;;;;;;;5.90;2.10;;;;;;;;;;4954101;28;20042;-80
2023/06/13 06:39:05;;;;;;;5.65;1.70;;;;;;;;;;4930341;28;20750;-80
2023/06/13 06:41:33;;;;;;;6.78;1.83;;;;;;;;;;4939706;28;20050;-79
2023/06/13 06:44:01;;;;;;;6.32;2.10;;;;;;;;;;4931215;28;20055;-80
2023/06/13 06:46:29;;;;;;;5.63;1.85;;;;;;;;;;4948606;28;20046;-80
2023/06/13 06:48:57;;;;;;;4.50;1.90;;;;;;;;;;4951877;28;20035;-80
2023/06/13 06:51:51;;;;;;;3.97;1.85;;;;;;;;;;4953463;28;20198;-80
2023/06/13 06:54:19;;;;;;;5.03;1.80;;;;;;;;;;4948511;28;20047;-80
2023/06/13 06:56:51;;;;;;;5.15;1.90;;;;;;;;;;4946638;28;20379;-80
2023/06/13 06:59:19;;;;;;;5.25;2.25;;;;;;;;;;4948382;28;20049;-80
2023/06/13 07:01:51;;;;;;;7.43;2.10;;;;;;;;;;4950413;28;20043;-80
2023/06/13 07:04:19;;;;;;;5.95;2.05;;;;;;;;;;4952262;28;20468;-80
2023/06/13 07:06:47;;;;;;;7.03;1.98;;;;;;;;;;4947762;28;20052;-80
2023/06/13 07:09:20;;;;;;;4.10;1.80;;;;;;;;;;4952585;28;20130;-80
2023/06/13 07:11:47;;;;;;;4.15;1.80;;;;;;;;;;4949749;28;20505;-80
2023/06/13 07:14:16;;;;;;;4.32;1.60;;;;;;;;;;4956522;28;20043;-80
2023/06/13 07:16:43;;;;;;;4.93;2.13;;;;;;;;;;4950114;28;20054;-80
2023/06/13 07:19:35;;;;;;;6.00;2.28;;;;;;;;;;4953479;28;20058;-80
2023/06/13 07:22:04;;;;;;;5.25;2.20;;;;;;;;;;4949707;28;20066;-80
2023/06/13 07:24:37;;;;;;;5.72;1.77;;;;;;;;;;4951166;28;20047;-80
2023/06/13 07:27:06;;;;;;;6.00;1.83;;;;;;;;;;4947713;28;20106;-80
2023/06/13 07:29:40;;;;;;;6.53;1.60;;;;;;;;;;4952688;28;20030;-81
2023/06/13 07:32:08;;;;;;;5.18;1.70;;;;;;;;;;4951634;28;20070;-80
2023/06/13 07:34:41;;;;;;;5.72;1.77;;;;;;;;;;4951363;28;20050;-80
2023/06/13 07:37:29;;;;;;;5.45;1.90;;;;;;;;;;4952599;28;20049;-80
2023/06/13 07:39:57;;;;;;;5.07;1.80;;;;;;;;;;4952130;28;20043;-80
2023/06/13 07:42:26;;;;;;;6.10;1.90;;;;;;;;;;4948736;28;20498;-80
2023/06/13 07:44:53;;;;;;;3.58;2.00;;;;;;;;;;4947171;28;20110;-81
2023/06/13 07:47:21;;;;;;;5.85;1.90;;;;;;;;;;4951673;28;20043;-80
2023/06/13 07:49:49;;;;;;;15.40;2.20;;;;;;;;;;4951146;28;20047;-82
2023/06/13 07:52:21;;;;;;;5.70;1.98;;;;;;;;;;4947387;28;20073;-82
2023/06/13 07:55:46;;;;;;;4.88;1.77;;;;;;;;;;4950140;28;20150;-82
2023/06/13 07:58:14;;;;;;;5.25;1.63;;;;;;;;;;4950038;28;20078;-81
2023/06/13 08:00:41;;;;;;;5.45;1.85;;;;;;;;;;4950743;28;20046;-82
2023/06/13 08:03:09;;;;;;;5.45;1.60;;;;;;;;;;4950715;28;20047;-82
2023/06/13 08:06:01;;;;;;;4.35;1.63;;;;;;;;;;4939415;28;20051;-82
2023/06/13 08:08:30;;;;;;;5.28;1.70;;;;;;;;;;4950367;28;20083;-82
2023/06/13 08:11:07;;;;;;;8.05;1.88;;;;;;;;;;4947691;28;20478;-82
2023/06/13 08:13:41;;;;;;;5.30;1.90;;;;;;;;;;4954391;28;20531;-82
2023/06/13 08:16:09;;;;;;;5.20;1.65;;;;;;;;;;4931512;28;20137;-82
2023/06/13 08:18:38;;;;;;;6.07;1.80;;;;;;;;;;4952509;28;20118;-82
2023/06/13 08:21:05;;;;;;;7.35;1.85;;;;;;;;;;4945959;28;20049;-82
2023/06/13 08:23:37;;;;;;;3.65;1.67;;;;;;;;;;4952561;28;20047;-81
2023/06/13 08:26:05;;;;;;;4.43;1.67;;;;;;;;;;4950941;28;20046;-82
2023/06/13 08:28:38;;;;;;;5.40;1.85;;;;;;;;;;4954141;28;20093;-82
2023/06/13 08:31:06;;;;;;;7.38;1.88;;;;;;;;;;4933210;28;20038;-82
2023/06/13 08:34:02;;;;;;;7.10;1.92;;;;;;;;;;4935260;28;20536;-82
2023/06/13 08:36:38;;;;;;;4.63;1.67;;;;;;;;;;4952186;28;20047;-82
2023/06/13 08:39:31;;;;;;;5.63;2.15;;;;;;;;;;4952474;28;20046;-82
2023/06/13 08:41:59;;;;;;;6.32;1.80;;;;;;;;;;4951478;28;20046;-83
2023/06/13 08:44:28;;;;;;;5.75;1.83;;;;;;;;;;4949401;28;20494;-83
2023/06/13 08:46:56;;;;;;;3.92;1.88;;;;;;;;;;4950132;28;20074;-82
2023/06/13 08:49:30;;;;;;;5.93;1.83;;;;;;;;;;4946873;28;20042;-83
2023/06/13 08:52:08;;;;;;;5.15;1.60;;;;;;;;;;4952996;28;20039;-83
2023/06/13 08:54:36;;;;;;;5.70;1.90;;;;;;;;;;4946169;28;20066;-83
2023/06/13 08:57:19;;;;;;;4.18;1.70;;;;;;;;;;4951401;28;20059;-83
2023/06/13 08:59:49;;;;;;;6.85;2.17;;;;;;;;;;4953831;28;20074;-83
2023/06/13 09:02:20;;;;;;;4.00;1.83;;;;;;;;;;4944256;28;20043;-82
2023/06/13 09:04:55;;;;;;;9.05;2.42;;;;;;;;;;4955763;28;20147;-83
2023/06/13 09:07:33;;;;;;;6.07;1.85;;;;;;;;;;4953624;28;20401;-83
2023/06/13 09:10:01;;;;;;;5.65;1.75;;;;;;;;;;4949947;28;20070;-82
2023/06/13 09:12:34;;;;;;;4.32;1.90;;;;;;;;;;4952617;28;20130;-83
2023/06/13 09:15:03;;;;;;;6.53;1.90;;;;;;;;;;4955240;28;20536;-83
2023/06/13 09:17:30;;;;;;;3.97;1.80;;;;;;;;;;4949734;28;20081;-83
2023/06/13 09:19:57;;;;;;;7.00;2.00;;;;;;;;;;4953455;28;20050;-83
2023/06/13 09:22:27;;;;;;;7.03;2.30;;;;;;;;;;4950629;28;20047;-83
2023/06/13 09:24:55;;;;;;;5.65;1.90;;;;;;;;;;4957190;28;20122;-83
2023/06/13 09:27:25;;;;;;;3.90;1.70;;;;;;;;;;4952786;28;20513;-83
2023/06/13 09:30:15;;;;;;;3.92;1.90;;;;;;;;;;4932535;28;20047;-83
2023/06/13 09:32:51;;;;;;;6.22;1.70;;;;;;;;;;4953098;28;20925;-83
2023/06/13 09:35:24;;;;;;;3.95;1.73;;;;;;;;;;4954666;28;20179;-83
2023/06/13 09:38:04;;;;;;;6.18;2.00;;;;;;;;;;4936298;28;20724;-83
2023/06/13 09:40:31;;;;;;;5.30;1.85;;;;;;;;;;4953336;28;20055;-83
2023/06/13 09:43:02;;;;;;;8.45;2.28;;;;;;;;;;4951456;28;20131;-83
2023/06/13 09:45:31;;;;;;;4.65;1.90;;;;;;;;;;4951534;28;20603;-82
2023/06/13 09:48:05;;;;;;;6.25;2.10;;;;;;;;;;4953780;28;20043;-83
2023/06/13 09:50:40;;;;;;;6.40;2.10;;;;;;;;;;4954084;28;20167;-84
2023/06/13 09:53:08;;;;;;;6.65;2.50;;;;;;;;;;4945475;28;20700;-83
2023/06/13 09:55:36;;;;;;;8.25;2.20;;;;;;;;;;4939006;28;20043;-84
2023/06/13 09:58:29;;;;;;;3.72;1.75;;;;;;;;;;4952215;28;20773;-83
2023/06/13 10:01:00;;;;;;;4.90;2.20;;;;;;;;;;4952591;28;20057;-83
2023/06/13 10:03:28;;;;;;;4.47;2.15;;;;;;;;;;4952683;28;20050;-83
2023/06/13 10:05:59;;;;;;;5.43;2.10;;;;;;;;;;4949238;28;20047;-84
2023/06/13 10:08:27;;;;;;;6.90;2.08;;;;;;;;;;4952245;28;20037;-84
2023/06/13 10:11:03;;;;;;;5.45;2.15;;;;;;;;;;4956287;28;20059;-83
2023/06/13 10:13:43;;;;;;;4.95;1.88;;;;;;;;;;4952529;28;20969;-84
2023/06/13 10:16:16;;;;;;;7.68;2.20;;;;;;;;;;4953786;28;20043;-84
2023/06/13 10:18:47;;;;;;;5.60;2.03;;;;;;;;;;4953827;28;20135;-83
2023/06/13 10:21:16;;;;;;;5.50;1.95;;;;;;;;;;4951015;28;20491;-84
2023/06/13 10:23:51;;;;;;;7.95;2.20;;;;;;;;;;4951702;28;21515;-84
2023/06/13 10:26:39;;;;;;;7.07;2.22;;;;;;;;;;4951922;28;20072;-84
2023/06/13 10:29:37;;;;;;;7.03;2.40;;;;;;;;;;4951706;28;20158;-84
2023/06/13 10:32:26;;;;;;;3.40;1.90;;;;;;;;;;4952129;28;20051;-84
2023/06/13 10:35:39;;;;;;;7.78;2.15;;;;;;;;;;4952646;28;20043;-84
2023/06/13 10:38:17;;;;;;;4.00;1.83;;;;;;;;;;4951512;28;20054;-85
2023/06/13 10:41:06;;;;;;;3.90;1.98;;;;;;;;;;4943358;28;20134;-84
2023/06/13 10:43:58;;;;;;;4.88;2.30;;;;;;;;;;4945382;28;20130;-84
2023/06/13 10:46:33;;;;;;;8.05;2.35;;;;;;;;;;4948957;28;20150;-84
2023/06/13 10:49:04;;;;;;;9.13;2.28;;;;;;;;;;4947457;28;20493;-83
2023/06/13 10:51:37;;;;;;;7.40;2.20;;;;;;;;;;4946541;28;20039;-84
2023/06/13 10:54:11;;;;;;;5.22;2.28;;;;;;;;;;4949896;28;20126;-84
2023/06/13 10:56:44;;;;;;;4.60;2.35;;;;;;;;;;4947137;28;20038;-84
2023/06/13 10:59:16;;;;;;;4.50;2.10;;;;;;;;;;4952140;28;20103;-84
2023/06/13 11:01:46;;;;;;;5.85;2.30;;;;;;;;;;4950673;28;20047;-84
2023/06/13 11:04:20;;;;;;;7.05;2.45;;;;;;;;;;4950277;28;20061;-84
2023/06/13 11:06:51;;;;;;;9.88;2.30;;;;;;;;;;4952784;28;20126;-84
2023/06/13 11:09:21;;;;;;;5.28;2.40;;;;;;;;;;4949975;28;20047;-84
2023/06/13 11:11:56;;;;;;;5.82;2.15;;;;;;;;;;4911222;28;20057;-84
2023/06/13 11:14:37;;;;;;;8.25;2.50;;;;;;;;;;4951576;28;20057;-84
2023/06/13 11:17:06;;;;;;;5.90;2.35;;;;;;;;;;4949496;28;20055;-84
2023/06/13 11:19:34;;;;;;;6.18;2.50;;;;;;;;;;4947572;28;20039;-84
2023/06/13 11:22:12;;;;;;;3.50;2.40;;;;;;;;;;4950344;28;20090;-84
2023/06/13 11:25:04;;;;;;;5.30;2.67;;;;;;;;;;4952045;28;20039;-84
2023/06/13 11:27:33;;;;;;;10.63;2.50;;;;;;;;;;4948681;28;20058;-83
2023/06/13 11:30:02;;;;;;;4.20;2.42;;;;;;;;;;4941450;28;20069;-84
2023/06/13 11:32:31;;;;;;;5.22;2.38;;;;;;;;;;4947933;28;20046;-84
2023/06/13 11:35:08;;;;;;;4.07;2.30;;;;;;;;;;4947012;28;20043;-83
2023/06/13 11:37:46;;;;;;;7.80;2.45;;;;;;;;;;4940385;28;20149;-84
2023/06/13 11:40:26;;;;;;;5.80;2.60;;;;;;;;;;4949828;28;20042;-83
2023/06/13 11:42:54;;;;;;;7.30;2.45;;;;;;;;;;4942344;28;20055;-85
2023/06/13 11:45:22;;;;;;;5.45;2.55;;;;;;;;;;4949709;28;20047;-83
2023/06/13 11:47:57;;;;;;;4.18;2.40;;;;;;;;;;4954801;28;20098;-84
